Leslieville, Canada
Current Conditions -  °F | °C
As of 1:00 PM on Saturday 20 Dec 2014 (Local Time) from CYQF Reporting Station
Scattered Clouds Scattered Clouds  
Wind Chill: 30°   Ceiling: Unl
Heat Index: 30°   Visibility: 15mi
Dew Point: 21°   Wind: 0mph
Humidity: 69%   Direction: NA
Pressure: 29.59"   Gusts: NA
Location:  52.38°N, 114.6°W
Report Text: CYQF 202000Z 00000KT 15SM SCT240 M01/M06 A2959 RMK CI4 OBS TAKEN +34 SLP065
Loading
Personal Weather Stations






























Interactive Weather Map New forecast layout! Learn more

10-Day Weather Forecast

Advertisements
Track Severe Weather on mobile